Time,TemperatureF,DewpointF,PressureIn,WindDirection,WindDirectionDegrees,WindSpeedMPH,WindSpeedGustMPH,Humidity,HourlyPrecipIn,Conditions,Clouds,dailyrainin,SolarRadiationWatts/m^2,SoftwareType,DateUTC
2013-08-18 00:02:00,-999.0,-99.9,-100.00,South,173,2.0,6.0,-999,0.00,,,0.00,0.000000,,2013-08-18 04:02:00,
2013-08-18 00:12:00,65.0,55.0,-100.00,SW,214,4.0,8.0,71,0.00,,,0.00,0.000000,,2013-08-18 04:12:00,
2013-08-18 00:42:00,65.0,55.0,-100.00,SW,214,4.0,8.0,71,0.00,,,0.00,0.000000,,2013-08-18 04:42:00,
2013-08-18 00:53:00,65.0,55.0,-100.00,SW,214,4.0,8.0,71,0.00,,,0.00,0.000000,,2013-08-18 04:53:00,
2013-08-18 01:02:00,65.0,55.0,-100.00,SW,214,4.0,8.0,71,0.00,,,0.00,0.000000,,2013-08-18 05:02:00,
2013-08-18 01:43:00,64.0,56.0,-100.00,SW,216,4.0,9.0,75,0.00,,,0.00,0.000000,,2013-08-18 05:43:00,
2013-08-18 01:52:00,64.0,56.0,-100.00,SW,216,4.0,9.0,75,0.00,,,0.00,0.000000,,2013-08-18 05:52:00,
2013-08-18 02:01:00,64.0,56.0,-100.00,SW,216,4.0,9.0,75,0.00,,,0.00,0.000000,,2013-08-18 06:01:00,
2013-08-18 02:11:00,64.0,56.0,-100.00,SW,216,4.0,9.0,75,0.00,,,0.00,0.000000,,2013-08-18 06:11:00,
2013-08-18 02:42:00,62.0,55.0,-100.00,WSW,247,3.0,9.0,79,0.00,,,0.00,0.000000,,2013-08-18 06:42:00,
2013-08-18 02:52:00,62.0,55.0,-100.00,WSW,247,3.0,9.0,79,0.00,,,0.00,0.000000,,2013-08-18 06:52:00,
2013-08-18 03:01:00,62.0,55.0,-100.00,WSW,247,3.0,9.0,79,0.00,,,0.00,0.000000,,2013-08-18 07:01:00,
2013-08-18 03:11:00,62.0,55.0,-100.00,WSW,247,3.0,9.0,79,0.00,,,0.00,0.000000,,2013-08-18 07:11:00,
2013-08-18 03:12:00,61.0,56.0,-100.00,WSW,239,3.0,7.0,84,0.00,,,0.00,0.000000,,2013-08-18 07:12:00,
2013-08-18 03:42:00,61.0,56.0,-100.00,WSW,239,3.0,7.0,84,0.00,,,0.00,0.000000,,2013-08-18 07:42:00,
2013-08-18 03:52:00,61.0,56.0,-100.00,WSW,239,3.0,7.0,84,0.00,,,0.00,0.000000,,2013-08-18 07:52:00,
2013-08-18 04:01:00,61.0,56.0,-100.00,WSW,239,3.0,7.0,84,0.00,,,0.00,0.000000,,2013-08-18 08:01:00,
2013-08-18 04:42:00,60.0,56.0,-100.00,WSW,237,4.0,6.0,86,0.00,,,0.00,0.000000,,2013-08-18 08:42:00,
2013-08-18 04:52:00,60.0,56.0,-100.00,WSW,237,4.0,6.0,86,0.00,,,0.00,0.000000,,2013-08-18 08:52:00,
2013-08-18 05:01:00,60.0,56.0,-100.00,WSW,237,4.0,6.0,86,0.00,,,0.00,0.000000,,2013-08-18 09:01:00,
2013-08-18 05:11:00,60.0,56.0,-100.00,WSW,237,4.0,6.0,86,0.00,,,0.00,0.000000,,2013-08-18 09:11:00,
2013-08-18 05:12:00,59.0,55.0,-100.00,WSW,244,3.0,6.0,88,0.00,,,0.00,0.000000,,2013-08-18 09:12:00,
2013-08-18 05:43:00,59.0,55.0,-100.00,WSW,244,3.0,6.0,88,0.00,,,0.00,0.000000,,2013-08-18 09:43:00,
2013-08-18 05:53:00,59.0,55.0,-100.00,WSW,244,3.0,6.0,88,0.00,,,0.00,0.000000,,2013-08-18 09:53:00,
2013-08-18 06:03:00,59.0,55.0,-100.00,WSW,244,3.0,6.0,88,0.00,,,0.00,0.000000,,2013-08-18 10:03:00,
2013-08-18 06:43:00,59.0,55.0,-100.00,WSW,248,4.0,6.0,86,0.00,,,0.00,0.000000,,2013-08-18 10:43:00,
2013-08-18 06:52:00,59.0,55.0,-100.00,WSW,248,4.0,6.0,86,0.00,,,0.00,0.000000,,2013-08-18 10:52:00,
2013-08-18 07:02:00,59.0,55.0,-100.00,WSW,248,4.0,6.0,86,0.00,,,0.00,0.000000,,2013-08-18 11:02:00,
2013-08-18 07:11:00,59.0,55.0,-100.00,WSW,248,4.0,6.0,86,0.00,,,0.00,0.000000,,2013-08-18 11:11:00,
2013-08-18 07:42:00,58.0,54.0,-100.00,WSW,242,4.0,6.0,87,0.00,,,0.00,4.000000,,2013-08-18 11:42:00,
2013-08-18 07:52:00,58.0,54.0,-100.00,WSW,242,4.0,6.0,87,0.00,,,0.00,4.000000,,2013-08-18 11:52:00,
2013-08-18 08:01:00,58.0,54.0,-100.00,WSW,242,4.0,6.0,87,0.00,,,0.00,4.000000,,2013-08-18 12:01:00,
2013-08-18 08:11:00,58.0,54.0,-100.00,WSW,242,4.0,6.0,87,0.00,,,0.00,4.000000,,2013-08-18 12:11:00,
2013-08-18 08:42:00,61.0,55.0,-100.00,WSW,244,4.0,6.0,81,0.00,,,0.00,52.000000,,2013-08-18 12:42:00,
2013-08-18 08:52:00,61.0,55.0,-100.00,WSW,244,4.0,6.0,81,0.00,,,0.00,52.000000,,2013-08-18 12:52:00,
2013-08-18 09:01:00,61.0,55.0,-100.00,WSW,244,4.0,6.0,81,0.00,,,0.00,52.000000,,2013-08-18 13:01:00,
2013-08-18 09:11:00,61.0,55.0,-100.00,WSW,244,4.0,6.0,81,0.00,,,0.00,52.000000,,2013-08-18 13:11:00,
2013-08-18 09:42:00,63.0,56.0,-100.00,West,259,4.0,7.0,77,0.00,,,0.00,174.000000,,2013-08-18 13:42:00,
2013-08-18 09:52:00,63.0,56.0,-100.00,West,259,4.0,7.0,77,0.00,,,0.00,174.000000,,2013-08-18 13:52:00,
2013-08-18 10:01:00,63.0,56.0,-100.00,West,259,4.0,7.0,77,0.00,,,0.00,174.000000,,2013-08-18 14:01:00,
2013-08-18 10:11:00,63.0,56.0,-100.00,West,259,4.0,7.0,77,0.00,,,0.00,174.000000,,2013-08-18 14:11:00,
2013-08-18 10:42:00,68.0,58.0,-100.00,WSW,240,3.0,8.0,70,0.00,,,0.00,327.000000,,2013-08-18 14:42:00,
2013-08-18 10:53:00,68.0,58.0,-100.00,WSW,240,3.0,8.0,70,0.00,,,0.00,327.000000,,2013-08-18 14:53:00,
2013-08-18 11:01:00,68.0,58.0,-100.00,WSW,240,3.0,8.0,70,0.00,,,0.00,327.000000,,2013-08-18 15:01:00,
2013-08-18 11:11:00,68.0,58.0,-100.00,WSW,240,3.0,8.0,70,0.00,,,0.00,327.000000,,2013-08-18 15:11:00,
2013-08-18 11:12:00,72.0,59.0,-100.00,SW,233,3.0,7.0,63,0.00,,,0.00,413.000000,,2013-08-18 15:12:00,
2013-08-18 11:43:00,72.0,59.0,-100.00,SW,233,3.0,7.0,63,0.00,,,0.00,413.000000,,2013-08-18 15:43:00,
2013-08-18 11:54:00,72.0,59.0,-100.00,SW,233,3.0,7.0,63,0.00,,,0.00,413.000000,,2013-08-18 15:54:00,
2013-08-18 12:03:00,72.0,59.0,-100.00,SW,233,3.0,7.0,63,0.00,,,0.00,413.000000,,2013-08-18 16:03:00,
2013-08-18 12:12:00,75.0,58.0,-100.00,SW,236,4.0,9.0,56,0.00,,,0.00,503.000000,,2013-08-18 16:12:00,
2013-08-18 12:42:00,75.0,58.0,-100.00,SW,236,4.0,9.0,56,0.00,,,0.00,503.000000,,2013-08-18 16:42:00,
2013-08-18 12:52:00,75.0,58.0,-100.00,SW,236,4.0,9.0,56,0.00,,,0.00,503.000000,,2013-08-18 16:52:00,
2013-08-18 13:02:00,75.0,58.0,-100.00,SW,236,4.0,9.0,56,0.00,,,0.00,503.000000,,2013-08-18 17:02:00,
2013-08-18 13:12:00,76.0,55.0,-100.00,WSW,252,7.0,14.0,49,0.00,,,0.00,599.000000,,2013-08-18 17:12:00,
2013-08-18 13:43:00,76.0,55.0,-100.00,WSW,252,7.0,14.0,49,0.00,,,0.00,599.000000,,2013-08-18 17:43:00,
2013-08-18 13:52:00,76.0,55.0,-100.00,WSW,252,7.0,14.0,49,0.00,,,0.00,599.000000,,2013-08-18 17:52:00,
2013-08-18 14:02:00,76.0,55.0,-100.00,WSW,252,7.0,14.0,49,0.00,,,0.00,599.000000,,2013-08-18 18:02:00,
2013-08-18 14:42:00,79.0,56.0,-100.00,SW,236,5.0,15.0,45,0.00,,,-99.99,779.000000,,2013-08-18 18:42:00,
2013-08-18 14:52:00,79.0,56.0,-100.00,SW,236,5.0,15.0,45,0.00,,,-99.99,779.000000,,2013-08-18 18:52:00,
2013-08-18 15:01:00,79.0,56.0,-100.00,SW,236,5.0,15.0,45,0.00,,,-99.99,779.000000,,2013-08-18 19:01:00,
2013-08-18 15:11:00,79.0,56.0,-100.00,SW,236,5.0,15.0,45,0.00,,,-99.99,779.000000,,2013-08-18 19:11:00,
2013-08-18 15:12:00,80.0,55.0,-100.00,SW,227,7.0,15.0,42,0.00,,,0.00,839.000000,,2013-08-18 19:12:00,
2013-08-18 15:42:00,80.0,55.0,-100.00,SW,227,7.0,15.0,42,0.00,,,0.00,839.000000,,2013-08-18 19:42:00,
2013-08-18 15:52:00,80.0,55.0,-100.00,SW,227,7.0,15.0,42,0.00,,,0.00,839.000000,,2013-08-18 19:52:00,
2013-08-18 16:02:00,80.0,55.0,-100.00,SW,227,7.0,15.0,42,0.00,,,0.00,839.000000,,2013-08-18 20:02:00,
2013-08-18 16:42:00,80.0,56.0,-100.00,SW,236,6.0,16.0,44,0.00,,,0.00,727.000000,,2013-08-18 20:42:00,
2013-08-18 16:52:00,80.0,56.0,-100.00,SW,236,6.0,16.0,44,0.00,,,0.00,727.000000,,2013-08-18 20:52:00,
2013-08-18 17:01:00,80.0,56.0,-100.00,SW,236,6.0,16.0,44,0.00,,,0.00,727.000000,,2013-08-18 21:01:00,
2013-08-18 17:11:00,80.0,56.0,-100.00,SW,236,6.0,16.0,44,0.00,,,0.00,727.000000,,2013-08-18 21:11:00,
2013-08-18 17:12:00,81.0,57.0,-100.00,SW,217,5.0,12.0,44,0.00,,,0.00,498.000000,,2013-08-18 21:12:00,
2013-08-18 17:42:00,81.0,57.0,-100.00,SW,217,5.0,12.0,44,0.00,,,0.00,498.000000,,2013-08-18 21:42:00,
2013-08-18 17:53:00,81.0,57.0,-100.00,SW,217,5.0,12.0,44,0.00,,,0.00,498.000000,,2013-08-18 21:53:00,
2013-08-18 18:03:00,81.0,57.0,-100.00,SW,217,5.0,12.0,44,0.00,,,0.00,498.000000,,2013-08-18 22:03:00,
2013-08-18 18:42:00,80.0,55.0,-100.00,SW,214,5.0,13.0,43,0.00,,,0.00,451.000000,,2013-08-18 22:42:00,
2013-08-18 18:52:00,80.0,55.0,-100.00,SW,214,5.0,13.0,43,0.00,,,0.00,451.000000,,2013-08-18 22:52:00,
2013-08-18 19:02:00,80.0,55.0,-100.00,SW,214,5.0,13.0,43,0.00,,,0.00,451.000000,,2013-08-18 23:02:00,
2013-08-18 19:11:00,80.0,55.0,-100.00,SW,214,5.0,13.0,43,0.00,,,0.00,451.000000,,2013-08-18 23:11:00,
2013-08-18 19:42:00,78.0,56.0,-100.00,SSW,192,4.0,11.0,47,0.00,,,0.00,306.000000,,2013-08-18 23:42:00,
2013-08-18 19:52:00,78.0,56.0,-100.00,SSW,192,4.0,11.0,47,0.00,,,0.00,306.000000,,2013-08-18 23:52:00,
2013-08-18 20:02:00,78.0,56.0,-100.00,SSW,192,4.0,11.0,47,0.00,,,0.00,306.000000,,2013-08-19 00:02:00,
2013-08-18 20:11:00,78.0,56.0,-100.00,SSW,192,4.0,11.0,47,0.00,,,0.00,306.000000,,2013-08-19 00:11:00,
2013-08-18 20:42:00,74.0,58.0,-100.00,South,171,2.0,7.0,57,0.00,,,0.00,127.000000,,2013-08-19 00:42:00,
2013-08-18 20:52:00,74.0,58.0,-100.00,South,171,2.0,7.0,57,0.00,,,0.00,127.000000,,2013-08-19 00:52:00,
2013-08-18 21:02:00,74.0,58.0,-100.00,South,171,2.0,7.0,57,0.00,,,0.00,127.000000,,2013-08-19 01:02:00,
2013-08-18 21:11:00,74.0,58.0,-100.00,South,171,2.0,7.0,57,0.00,,,0.00,127.000000,,2013-08-19 01:11:00,
2013-08-18 21:42:00,67.0,58.0,-100.00,SSE,153,2.0,4.0,72,0.00,,,0.00,14.000000,,2013-08-19 01:42:00,
2013-08-18 21:52:00,67.0,58.0,-100.00,SSE,153,2.0,4.0,72,0.00,,,0.00,14.000000,,2013-08-19 01:52:00,
2013-08-18 22:06:00,67.0,58.0,-100.00,SSE,153,2.0,4.0,72,0.00,,,0.00,14.000000,,2013-08-19 02:06:00,
2013-08-18 22:11:00,67.0,58.0,-100.00,SSE,153,2.0,4.0,72,0.00,,,0.00,14.000000,,2013-08-19 02:11:00,
2013-08-18 22:42:00,62.0,57.0,-100.00,SSE,147,1.0,4.0,84,0.00,,,0.00,0.000000,,2013-08-19 02:42:00,
2013-08-18 22:52:00,62.0,57.0,-100.00,SSE,147,1.0,4.0,84,0.00,,,0.00,0.000000,,2013-08-19 02:52:00,
2013-08-18 23:01:00,62.0,57.0,-100.00,SSE,147,1.0,4.0,84,0.00,,,0.00,0.000000,,2013-08-19 03:01:00,
2013-08-18 23:11:00,62.0,57.0,-100.00,SSE,147,1.0,4.0,84,0.00,,,0.00,0.000000,,2013-08-19 03:11:00,
2013-08-18 23:12:00,62.0,58.0,-100.00,SSE,160,2.0,6.0,86,0.00,,,0.00,0.000000,,2013-08-19 03:12:00,
2013-08-18 23:42:00,62.0,58.0,-100.00,SSE,160,2.0,6.0,86,0.00,,,0.00,0.000000,,2013-08-19 03:42:00,
2013-08-18 23:53:00,62.0,58.0,-100.00,SSE,160,2.0,6.0,86,0.00,,,0.00,0.000000,,2013-08-19 03:53:00,